createdAt,value
2023-02-24T00:01:25.005Z,66.38
2023-02-24T00:03:56.798Z,66.66
2023-02-24T00:06:36.759Z,66.23
2023-02-24T00:09:08.208Z,66.19
2023-02-24T00:11:37.936Z,67.08
2023-02-24T00:14:05.734Z,67.31
2023-02-24T00:16:32.430Z,68.23
2023-02-24T00:18:58.923Z,67.70
2023-02-24T00:21:25.650Z,68.62
2023-02-24T00:23:53.413Z,68.07
2023-02-24T00:26:20.246Z,68.20
2023-02-24T00:28:46.628Z,68.24
2023-02-24T00:31:14.438Z,68.60
2023-02-24T00:33:41.231Z,67.96
2023-02-24T00:36:08.572Z,66.99
2023-02-24T00:38:36.002Z,67.98
2023-02-24T00:41:08.079Z,67.95
2023-02-24T00:43:37.308Z,68.07
2023-02-24T00:46:10.933Z,67.92
2023-02-24T00:48:40.518Z,67.76
2023-02-24T00:51:10.146Z,68.89
2023-02-24T00:53:38.363Z,67.82
2023-02-24T00:56:07.215Z,67.34
2023-02-24T00:58:36.661Z,67.10
2023-02-24T01:01:04.397Z,68.29
2023-02-24T01:03:32.403Z,67.52
2023-02-24T01:06:03.244Z,67.83
2023-02-24T01:08:30.134Z,69.42
2023-02-24T01:11:17.322Z,67.87
2023-02-24T01:13:44.076Z,68.83
2023-02-24T01:16:13.134Z,67.62
2023-02-24T01:18:39.590Z,68.21
2023-02-24T01:21:05.997Z,69.30
2023-02-24T01:23:32.542Z,68.31
2023-02-24T01:25:59.980Z,68.01
2023-02-24T01:28:27.173Z,71.38
2023-02-24T01:30:54.193Z,71.50
2023-02-24T01:33:23.769Z,73.01
2023-02-24T01:35:50.229Z,70.72
2023-02-24T01:38:22.986Z,69.06
2023-02-24T01:40:56.401Z,71.16
2023-02-24T01:43:22.802Z,70.63
2023-02-24T01:45:51.726Z,69.97
2023-02-24T01:48:18.132Z,71.20
2023-02-24T01:50:45.239Z,71.24
2023-02-24T01:53:11.936Z,69.95
2023-02-24T01:55:47.121Z,69.59
2023-02-24T01:58:15.945Z,70.42
2023-02-24T02:00:46.877Z,69.92
2023-02-24T02:03:18.673Z,69.12
2023-02-24T02:05:48.521Z,69.01
2023-02-24T02:08:16.537Z,69.67
2023-02-24T02:10:44.338Z,70.50
2023-02-24T02:13:13.112Z,70.49
2023-02-24T02:15:43.446Z,69.57
2023-02-24T02:18:14.474Z,69.52
2023-02-24T02:20:58.492Z,71.21
2023-02-24T02:23:43.677Z,72.32
2023-02-24T02:26:24.115Z,71.45
2023-02-24T02:28:56.958Z,72.16
2023-02-24T02:31:33.885Z,72.19
2023-02-24T02:34:08.120Z,71.25
2023-02-24T02:36:40.688Z,71.92
2023-02-24T02:39:24.917Z,71.37
2023-02-24T02:42:04.798Z,71.77
2023-02-24T02:44:36.355Z,70.18
2023-02-24T02:47:08.977Z,70.01
2023-02-24T02:49:38.366Z,70.49
2023-02-24T02:52:17.728Z,70.12
2023-02-24T02:54:45.897Z,70.68
2023-02-24T02:57:18.142Z,69.81
2023-02-24T02:59:49.267Z,69.44
2023-02-24T03:02:17.573Z,69.13
2023-02-24T03:04:46.687Z,70.00
2023-02-24T03:07:13.603Z,71.23
2023-02-24T03:09:40.880Z,70.78
2023-02-24T03:12:08.643Z,69.30
2023-02-24T03:14:37.509Z,68.81
2023-02-24T03:17:04.887Z,68.82
2023-02-24T03:19:32.331Z,68.59
2023-02-24T03:22:00.014Z,68.61
2023-02-24T03:24:27.990Z,69.49
2023-02-24T03:27:00.536Z,69.29
2023-02-24T03:29:30.386Z,69.61
2023-02-24T03:32:01.137Z,68.96
2023-02-24T03:34:31.031Z,68.78
2023-02-24T03:36:57.425Z,69.71
2023-02-24T03:39:25.341Z,69.06
2023-02-24T03:42:11.813Z,69.29
2023-02-24T03:44:38.778Z,68.67
2023-02-24T03:47:05.233Z,68.73
2023-02-24T03:49:31.634Z,68.41
2023-02-24T03:52:21.589Z,69.21
2023-02-24T03:54:49.801Z,69.31
2023-02-24T03:57:37.116Z,69.41
2023-02-24T04:00:26.395Z,68.75
2023-02-24T04:02:57.290Z,69.16
2023-02-24T04:05:24.444Z,69.49
2023-02-24T04:07:57.879Z,70.23
2023-02-24T04:10:26.507Z,71.44
2023-02-24T04:13:02.093Z,69.74
2023-02-24T04:15:33.480Z,71.65
2023-02-24T04:18:01.190Z,70.50
2023-02-24T04:20:32.746Z,69.41
2023-02-24T04:23:02.963Z,69.86
2023-02-24T04:25:29.641Z,69.74
2023-02-24T04:27:58.487Z,71.51
2023-02-24T04:30:26.361Z,69.83
2023-02-24T04:32:53.362Z,70.13
2023-02-24T04:35:20.404Z,70.88
2023-02-24T04:37:50.476Z,70.76
2023-02-24T04:40:17.693Z,70.79
2023-02-24T04:42:48.822Z,70.07
2023-02-24T04:45:16.929Z,71.36
2023-02-24T04:47:46.142Z,72.05
2023-02-24T04:50:22.672Z,70.63
2023-02-24T04:52:56.076Z,72.25
2023-02-24T04:55:24.034Z,71.59
2023-02-24T04:57:53.294Z,71.38
2023-02-24T05:00:23.106Z,70.95
2023-02-24T05:02:50.204Z,71.83
2023-02-24T05:05:17.254Z,71.29
2023-02-24T05:07:47.584Z,71.55
2023-02-24T05:10:15.316Z,71.31
2023-02-24T05:12:42.384Z,71.01
2023-02-24T05:15:08.962Z,71.88
2023-02-24T05:17:35.426Z,71.77
2023-02-24T05:20:20.715Z,70.64
2023-02-24T05:22:53.143Z,69.83
2023-02-24T05:25:20.331Z,69.40
2023-02-24T05:27:47.766Z,69.96
2023-02-24T05:30:14.508Z,70.27
2023-02-24T05:32:41.222Z,68.94
2023-02-24T05:35:07.803Z,68.53
2023-02-24T05:37:37.723Z,68.35
2023-02-24T05:40:04.359Z,68.85
2023-02-24T05:42:34.994Z,69.01
2023-02-24T05:45:01.676Z,69.78
2023-02-24T05:47:28.376Z,70.85
2023-02-24T05:49:56.891Z,71.41
2023-02-24T05:52:23.477Z,71.47
2023-02-24T05:54:50.447Z,71.82
2023-02-24T05:57:20.881Z,72.97
2023-02-24T05:59:50.494Z,73.49
2023-02-24T06:02:17.981Z,73.37
2023-02-24T06:04:53.648Z,74.40
2023-02-24T06:07:22.533Z,72.38
2023-02-24T06:09:53.937Z,71.52
2023-02-24T06:12:24.712Z,75.35
2023-02-24T06:14:52.915Z,74.14
2023-02-24T06:17:19.801Z,74.56
2023-02-24T06:19:46.934Z,76.31
2023-02-24T06:22:13.777Z,75.97
2023-02-24T06:24:46.037Z,74.94
2023-02-24T06:27:17.588Z,73.33
2023-02-24T06:29:44.769Z,72.11
2023-02-24T06:32:11.576Z,73.66
2023-02-24T06:34:38.553Z,74.12
2023-02-24T06:37:05.652Z,73.10
2023-02-24T06:39:36.634Z,73.26
2023-02-24T06:42:04.971Z,74.88
2023-02-24T06:44:31.797Z,74.62
2023-02-24T06:46:58.163Z,73.86
2023-02-24T06:49:24.977Z,72.00
2023-02-24T06:51:52.234Z,72.76
2023-02-24T06:54:19.119Z,73.86
2023-02-24T06:56:45.628Z,73.92
2023-02-24T06:59:15.904Z,73.43
2023-02-24T07:01:45.313Z,72.41
2023-02-24T07:04:12.342Z,73.69
2023-02-24T07:06:41.049Z,73.03
2023-02-24T07:09:08.700Z,72.66
2023-02-24T07:11:35.515Z,70.94
2023-02-24T07:14:02.425Z,69.83
2023-02-24T07:16:28.996Z,69.55
2023-02-24T07:18:56.755Z,70.75
2023-02-24T07:21:24.223Z,72.14
2023-02-24T07:23:58.590Z,71.48
2023-02-24T07:26:26.196Z,71.43
2023-02-24T07:28:54.914Z,72.59
2023-02-24T07:31:23.016Z,73.09
2023-02-24T07:33:52.744Z,73.19
2023-02-24T07:36:23.218Z,72.35
2023-02-24T07:38:53.638Z,72.80
2023-02-24T07:41:22.722Z,73.43
2023-02-24T07:43:53.024Z,71.10
2023-02-24T07:46:20.880Z,71.67
2023-02-24T07:48:47.487Z,71.42
2023-02-24T07:51:15.528Z,71.04
2023-02-24T07:53:42.435Z,70.60
2023-02-24T07:56:17.500Z,71.23
2023-02-24T07:58:44.306Z,71.27
2023-02-24T08:01:22.714Z,70.83
2023-02-24T08:03:51.958Z,69.89
2023-02-24T08:06:27.050Z,71.28
2023-02-24T08:09:10.717Z,71.65
2023-02-24T08:11:37.095Z,69.79
2023-02-24T08:14:03.649Z,70.93
2023-02-24T08:16:42.339Z,70.15
2023-02-24T08:19:13.031Z,70.35
2023-02-24T08:21:47.283Z,71.34
2023-02-24T08:24:17.617Z,73.35
2023-02-24T08:26:53.742Z,72.85
2023-02-24T08:29:20.570Z,69.82
2023-02-24T08:31:47.343Z,71.84
2023-02-24T08:34:16.066Z,71.99
2023-02-24T08:36:48.413Z,71.36
2023-02-24T08:39:14.822Z,69.40
2023-02-24T08:41:51.483Z,69.71
2023-02-24T08:44:21.584Z,68.96
2023-02-24T08:46:50.785Z,70.17
2023-02-24T08:49:17.540Z,71.00
2023-02-24T08:51:44.888Z,70.02
2023-02-24T08:54:15.601Z,69.99
2023-02-24T08:56:44.103Z,69.72
2023-02-24T08:59:28.935Z,68.89
2023-02-24T09:02:17.892Z,69.82
2023-02-24T09:04:45.161Z,68.27
2023-02-24T09:07:19.104Z,68.30
2023-02-24T09:09:45.584Z,68.52
2023-02-24T09:12:22.013Z,67.75
2023-02-24T09:15:01.013Z,68.10
2023-02-24T09:17:48.625Z,67.12
2023-02-24T09:20:27.122Z,68.04
2023-02-24T09:23:07.703Z,69.06
2023-02-24T09:25:41.378Z,68.55
2023-02-24T09:28:17.400Z,68.83
2023-02-24T09:30:51.261Z,70.26
2023-02-24T09:33:18.425Z,70.48
2023-02-24T09:35:46.769Z,69.36
2023-02-24T09:38:16.703Z,69.68
2023-02-24T09:40:49.949Z,70.59
2023-02-24T09:43:21.143Z,68.97
2023-02-24T09:46:01.579Z,68.11
2023-02-24T09:48:33.172Z,67.16
2023-02-24T09:51:05.208Z,67.37
2023-02-24T09:53:41.263Z,66.98
2023-02-24T09:56:08.182Z,67.35
2023-02-24T09:58:50.058Z,66.70
2023-02-24T10:01:36.033Z,65.45
2023-02-24T10:04:14.829Z,66.67
2023-02-24T10:06:46.885Z,67.22
2023-02-24T10:09:21.615Z,66.43
2023-02-24T10:11:54.714Z,65.76
2023-02-24T10:14:44.506Z,65.42
2023-02-24T10:17:25.089Z,64.82
2023-02-24T10:20:00.684Z,66.17
2023-02-24T10:22:34.711Z,65.89
2023-02-24T10:25:11.616Z,64.72
2023-02-24T10:27:58.302Z,66.79
2023-02-24T10:30:27.927Z,67.22
2023-02-24T10:32:59.015Z,68.63
2023-02-24T10:35:33.506Z,68.55
2023-02-24T10:38:05.778Z,66.74
2023-02-24T10:40:48.172Z,67.43
2023-02-24T10:43:17.787Z,67.48
2023-02-24T10:45:47.797Z,67.59
2023-02-24T10:48:40.315Z,66.43
2023-02-24T10:51:31.769Z,68.02
2023-02-24T10:54:30.714Z,66.99
2023-02-24T10:57:29.845Z,67.17
2023-02-24T11:00:05.658Z,66.77
2023-02-24T11:02:45.796Z,66.31
2023-02-24T11:05:38.753Z,67.90
2023-02-24T11:08:34.283Z,67.58
2023-02-24T11:11:07.080Z,66.86
2023-02-24T11:13:52.678Z,68.19
2023-02-24T11:16:54.351Z,67.22
2023-02-24T11:19:21.209Z,67.90
2023-02-24T11:21:47.614Z,68.26
2023-02-24T11:24:17.041Z,66.16
2023-02-24T11:26:43.416Z,65.81
2023-02-24T11:29:28.809Z,66.98
2023-02-24T11:31:55.972Z,65.87
2023-02-24T11:34:24.556Z,66.28
2023-02-24T11:36:57.852Z,67.02
2023-02-24T11:39:30.484Z,67.38
2023-02-24T11:41:57.406Z,66.79
2023-02-24T11:44:25.874Z,67.77
2023-02-24T11:46:52.844Z,66.57
2023-02-24T11:49:27.532Z,67.04
2023-02-24T11:51:54.431Z,67.30
2023-02-24T11:54:20.895Z,65.13
2023-02-24T11:56:48.911Z,65.96
2023-02-24T11:59:31.650Z,67.25
2023-02-24T12:02:17.057Z,67.65
2023-02-24T12:04:52.231Z,66.61
2023-02-24T12:07:18.629Z,64.21
2023-02-24T12:09:46.623Z,63.47
2023-02-24T12:12:23.677Z,65.99
2023-02-24T12:14:57.434Z,65.97
2023-02-24T12:17:27.005Z,63.83
2023-02-24T12:19:59.844Z,66.18
2023-02-24T12:22:28.484Z,67.00
2023-02-24T12:24:55.099Z,66.38
2023-02-24T12:27:21.410Z,64.35
2023-02-24T12:30:06.516Z,64.15
2023-02-24T12:32:33.139Z,65.02
2023-02-24T12:35:19.854Z,65.69
2023-02-24T12:38:05.173Z,63.71
2023-02-24T12:40:45.863Z,65.78
2023-02-24T12:43:12.391Z,65.11
2023-02-24T12:45:39.258Z,65.89
2023-02-24T12:48:20.722Z,64.82
2023-02-24T12:51:05.644Z,63.42
2023-02-24T12:53:47.004Z,64.16
2023-02-24T12:56:45.958Z,63.44
2023-02-24T12:59:13.252Z,63.23
2023-02-24T13:01:59.654Z,62.01
2023-02-24T13:04:43.774Z,63.51
2023-02-24T13:07:10.116Z,64.08
2023-02-24T13:09:57.544Z,63.92
2023-02-24T13:12:30.037Z,63.13
2023-02-24T13:14:56.399Z,63.09
2023-02-24T13:17:23.547Z,63.65
2023-02-24T13:19:51.970Z,61.66
2023-02-24T13:22:20.410Z,62.36
2023-02-24T13:24:56.384Z,61.68
2023-02-24T13:27:26.835Z,61.92
2023-02-24T13:29:55.613Z,62.74
2023-02-24T13:32:34.284Z,62.40
2023-02-24T13:35:02.192Z,63.00
2023-02-24T13:37:31.339Z,61.79
2023-02-24T13:39:57.675Z,63.31
2023-02-24T13:42:30.623Z,63.31
2023-02-24T13:44:59.720Z,63.31
2023-02-24T13:47:34.199Z,63.68
2023-02-24T13:50:11.334Z,63.91
2023-02-24T13:52:50.766Z,63.49
2023-02-24T13:55:17.078Z,63.41
2023-02-24T13:57:47.151Z,63.02
2023-02-24T14:00:22.065Z,63.01
2023-02-24T14:02:48.547Z,63.05
2023-02-24T14:05:23.174Z,63.37
2023-02-24T14:07:49.926Z,62.60
2023-02-24T14:10:19.162Z,63.10
2023-02-24T14:12:45.848Z,62.59
2023-02-24T14:15:13.875Z,63.40
2023-02-24T14:17:40.269Z,62.86
2023-02-24T14:20:06.660Z,62.71
2023-02-24T14:22:34.612Z,62.97
2023-02-24T14:25:01.822Z,61.66
2023-02-24T14:27:28.630Z,63.82
2023-02-24T14:29:55.340Z,62.98
2023-02-24T14:32:22.823Z,64.04
2023-02-24T14:34:49.674Z,63.74
2023-02-24T14:37:17.293Z,62.67
2023-02-24T14:39:52.915Z,62.45
2023-02-24T14:42:20.189Z,63.65
2023-02-24T14:44:50.459Z,63.81
2023-02-24T14:47:17.697Z,62.96
2023-02-24T14:49:54.186Z,62.68
2023-02-24T14:52:26.469Z,63.35
2023-02-24T14:54:58.860Z,63.57
2023-02-24T14:57:26.497Z,62.43
2023-02-24T14:59:54.141Z,63.22
2023-02-24T15:02:21.881Z,63.05
2023-02-24T15:04:48.348Z,63.51
2023-02-24T15:07:25.056Z,65.31
2023-02-24T15:09:51.705Z,64.04
2023-02-24T15:12:29.231Z,64.42
2023-02-24T15:15:18.887Z,63.39
2023-02-24T15:17:45.263Z,62.81
2023-02-24T15:20:30.544Z,62.98
2023-02-24T15:22:57.122Z,64.83
2023-02-24T15:25:40.723Z,64.68
2023-02-24T15:28:22.576Z,62.98
2023-02-24T15:31:11.551Z,62.98
2023-02-24T15:33:43.483Z,61.27
2023-02-24T15:36:17.719Z,62.87
2023-02-24T15:38:44.969Z,62.67
2023-02-24T15:41:12.371Z,61.12
2023-02-24T15:43:48.120Z,63.22
2023-02-24T15:46:14.728Z,64.14
2023-02-24T15:48:42.374Z,63.77
2023-02-24T15:51:10.240Z,64.05
2023-02-24T15:53:36.618Z,63.63
2023-02-24T15:56:03.012Z,63.70
2023-02-24T15:58:29.373Z,63.59
2023-02-24T16:00:55.809Z,63.86
2023-02-24T16:03:22.621Z,63.35
2023-02-24T16:09:43.169Z,63.84
2023-02-24T16:16:10.586Z,64.54
2023-02-24T16:18:37.535Z,63.25
2023-02-24T16:21:04.852Z,64.52
2023-02-24T16:23:38.730Z,63.39
2023-02-24T16:26:05.299Z,62.70
2023-02-24T16:28:32.856Z,65.17
2023-02-24T16:30:59.777Z,64.93
2023-02-24T16:33:28.179Z,64.36
2023-02-24T16:35:54.798Z,64.81
2023-02-24T16:38:21.887Z,64.38
2023-02-24T16:40:49.022Z,64.04
2023-02-24T16:43:15.474Z,63.76
2023-02-24T16:45:42.632Z,64.74
2023-02-24T16:48:09.909Z,64.57
2023-02-24T16:50:39.204Z,65.18
2023-02-24T16:53:06.153Z,63.10
2023-02-24T16:55:32.700Z,63.74
2023-02-24T16:57:59.390Z,66.47
2023-02-24T17:00:25.990Z,65.53
2023-02-24T17:02:53.168Z,67.86
2023-02-24T17:05:22.625Z,66.09
2023-02-24T17:07:50.790Z,65.35
2023-02-24T17:10:17.922Z,65.42
2023-02-24T17:12:44.817Z,67.46
2023-02-24T17:15:18.026Z,67.32
2023-02-24T17:17:44.722Z,66.96
2023-02-24T17:20:13.516Z,66.85
2023-02-24T17:22:40.750Z,66.81
2023-02-24T17:25:08.001Z,69.17
2023-02-24T17:27:34.596Z,68.97
2023-02-24T17:30:01.108Z,68.73
2023-02-24T17:32:27.919Z,69.15
2023-02-24T17:34:54.654Z,68.55
2023-02-24T17:37:21.216Z,69.50
2023-02-24T17:39:47.757Z,67.00
2023-02-24T17:42:14.297Z,67.19
2023-02-24T17:44:40.875Z,68.15
2023-02-24T17:47:09.065Z,67.53
2023-02-24T17:49:35.624Z,68.21
2023-02-24T17:52:04.066Z,67.70
2023-02-24T17:54:31.832Z,67.00
2023-02-24T17:56:58.361Z,66.22
2023-02-24T17:59:25.002Z,65.92
2023-02-24T18:01:51.739Z,67.56
2023-02-24T18:04:18.341Z,67.67
2023-02-24T18:06:45.687Z,65.70
2023-02-24T18:09:12.232Z,65.61
2023-02-24T18:11:38.765Z,66.53
2023-02-24T18:14:05.374Z,66.40
2023-02-24T18:16:31.939Z,66.52
2023-02-24T18:18:58.540Z,66.51
2023-02-24T18:21:25.980Z,66.03
2023-02-24T18:23:52.605Z,66.59
2023-02-24T18:26:20.545Z,67.45
2023-02-24T18:28:48.460Z,66.04
2023-02-24T18:31:18.062Z,65.99
2023-02-24T18:33:45.010Z,65.26
2023-02-24T18:36:12.262Z,64.54
2023-02-24T18:38:38.962Z,65.80
2023-02-24T18:41:08.047Z,66.38
2023-02-24T18:43:35.610Z,65.66
2023-02-24T18:46:04.865Z,64.24
2023-02-24T18:48:32.768Z,65.35
2023-02-24T18:50:59.978Z,66.51
2023-02-24T18:53:30.554Z,64.23
2023-02-24T18:56:07.810Z,63.79
2023-02-24T18:58:40.948Z,65.07
2023-02-24T19:01:16.530Z,65.10
2023-02-24T19:03:43.718Z,64.03
2023-02-24T19:06:11.969Z,64.71
2023-02-24T19:08:39.571Z,65.91
2023-02-24T19:11:10.906Z,64.65
2023-02-24T19:13:37.538Z,64.56
2023-02-24T19:16:05.186Z,64.13
2023-02-24T19:18:32.004Z,63.41
2023-02-24T19:20:58.604Z,62.32
2023-02-24T19:23:25.242Z,62.81
2023-02-24T19:25:52.118Z,64.42
2023-02-24T19:28:19.225Z,64.86
2023-02-24T19:30:46.585Z,64.13
2023-02-24T19:33:13.277Z,65.05
2023-02-24T19:35:41.899Z,63.65
2023-02-24T19:38:09.442Z,64.20
2023-02-24T19:40:36.521Z,63.66
2023-02-24T19:43:03.140Z,64.18
2023-02-24T19:45:29.751Z,65.53
2023-02-24T19:47:56.356Z,66.31
2023-02-24T19:50:22.949Z,65.42
2023-02-24T19:52:49.502Z,64.25
2023-02-24T19:55:16.108Z,63.46
2023-02-24T19:57:42.671Z,64.06
2023-02-24T20:00:11.591Z,63.03
2023-02-24T20:02:41.235Z,64.56
2023-02-24T20:05:08.541Z,63.92
2023-02-24T20:07:35.097Z,63.09
2023-02-24T20:10:01.627Z,63.75
2023-02-24T20:12:28.361Z,65.02
2023-02-24T20:14:54.892Z,63.79
2023-02-24T20:17:22.135Z,63.38
2023-02-24T20:19:48.687Z,63.54
2023-02-24T20:22:15.225Z,62.79
2023-02-24T20:24:41.779Z,61.95
2023-02-24T20:27:08.635Z,63.75
2023-02-24T20:29:35.404Z,63.60
2023-02-24T20:32:02.980Z,63.88
2023-02-24T20:34:29.822Z,62.89
2023-02-24T20:36:56.361Z,65.06
2023-02-24T20:39:24.809Z,64.84
2023-02-24T20:41:53.513Z,64.78
2023-02-24T20:44:20.390Z,64.01
2023-02-24T20:46:46.953Z,65.71
2023-02-24T20:49:14.933Z,66.20
2023-02-24T20:51:42.104Z,64.27
2023-02-24T20:54:11.056Z,64.95
2023-02-24T20:56:39.475Z,65.40
2023-02-24T20:59:17.534Z,65.42
2023-02-24T21:01:47.310Z,62.51
2023-02-24T21:04:15.117Z,66.06
2023-02-24T21:06:41.667Z,65.56
2023-02-24T21:09:08.208Z,65.27
2023-02-24T21:11:34.849Z,66.30
2023-02-24T21:14:01.555Z,66.16
2023-02-24T21:16:28.219Z,67.33
2023-02-24T21:18:55.818Z,68.74
2023-02-24T21:21:22.406Z,68.19
2023-02-24T21:23:50.360Z,67.82
2023-02-24T21:26:17.486Z,69.48
2023-02-24T21:28:44.503Z,70.05
2023-02-24T21:31:13.526Z,69.02
2023-02-24T21:33:40.523Z,69.53
2023-02-24T21:36:13.542Z,69.51
2023-02-24T21:38:41.332Z,70.25
2023-02-24T21:41:13.395Z,68.89
2023-02-24T21:43:40.409Z,69.90
2023-02-24T21:46:09.085Z,69.58
2023-02-24T21:48:37.036Z,69.86
2023-02-24T21:51:04.424Z,70.31
2023-02-24T21:53:33.770Z,70.78
2023-02-24T21:56:18.868Z,71.04
2023-02-24T21:58:56.980Z,71.01
2023-02-24T22:01:24.564Z,72.29
2023-02-24T22:03:54.683Z,72.07
2023-02-24T22:06:21.608Z,70.36
2023-02-24T22:08:48.227Z,69.76
2023-02-24T22:11:15.495Z,71.19
2023-02-24T22:13:42.365Z,69.91
2023-02-24T22:16:09.746Z,70.80
2023-02-24T22:18:36.277Z,70.75
2023-02-24T22:21:09.302Z,70.28
2023-02-24T22:23:35.921Z,69.46
2023-02-24T22:26:03.708Z,70.65
2023-02-24T22:28:30.218Z,72.28
2023-02-24T22:30:57.750Z,69.25
2023-02-24T22:33:24.592Z,70.29
2023-02-24T22:35:51.074Z,69.76
2023-02-24T22:38:17.546Z,69.96
2023-02-24T22:40:44.440Z,70.17
2023-02-24T22:43:10.908Z,70.32
2023-02-24T22:45:37.356Z,70.98
2023-02-24T22:48:03.944Z,71.35
2023-02-24T22:50:30.372Z,70.74
2023-02-24T22:52:56.861Z,70.44
2023-02-24T22:55:23.973Z,70.15
2023-02-24T22:57:50.488Z,70.33
2023-02-24T23:00:20.277Z,70.42
2023-02-24T23:02:47.155Z,70.62
2023-02-24T23:05:13.613Z,70.97
2023-02-24T23:07:40.390Z,71.30
2023-02-24T23:10:06.969Z,70.60
2023-02-24T23:12:33.394Z,70.26
2023-02-24T23:14:59.859Z,69.37
2023-02-24T23:17:26.279Z,70.64
2023-02-24T23:19:52.782Z,69.85
2023-02-24T23:22:19.223Z,69.86
2023-02-24T23:24:46.031Z,68.78
2023-02-24T23:27:12.456Z,69.33
2023-02-24T23:29:38.901Z,68.75
2023-02-24T23:32:05.531Z,69.52
2023-02-24T23:34:32.325Z,68.43
2023-02-24T23:36:58.772Z,68.63
2023-02-24T23:39:25.284Z,69.47
2023-02-24T23:41:56.468Z,67.66
2023-02-24T23:44:23.688Z,67.10
2023-02-24T23:46:50.127Z,66.63
2023-02-24T23:49:16.600Z,69.32
2023-02-24T23:51:48.373Z,69.45
2023-02-24T23:54:16.031Z,68.23
2023-02-24T23:56:42.600Z,68.93
2023-02-24T23:59:09.045Z,66.85
